Time;durP1;ratioP1;P1;durP2;ratioP2;P2;SDS_P1;SDS_P2;PMS_P1;PMS_P2;Temp;Humidity;BMP_temperature;BMP_pressure;BME280_temperature;BME280_humidity;BME280_pressure;Samples;Min_cycle;Max_cycle;Signal;HPM_P1;HPM_P2
2021/05/31 00:01:59;;;;;;;7.65;5.55;;;;;;;7.45;83.37;97766.47;1724420;83;21049;-86
2021/05/31 00:04:26;;;;;;;9.08;5.62;;;;;;;7.47;83.94;97767.77;1724377;82;21067;-85
2021/05/31 00:07:12;;;;;;;8.13;5.55;;;;;;;7.48;83.46;97775.62;1724351;83;21080;-85
2021/05/31 00:09:41;;;;;;;6.15;4.62;;;;;;;7.51;83.85;97768.09;1724324;83;21029;-85
2021/05/31 00:12:12;;;;;;;7.40;4.87;;;;;;;7.55;83.83;97767.60;1724371;83;21502;-85
2021/05/31 00:14:40;;;;;;;5.97;4.55;;;;;;;7.60;84.22;97768.37;1724263;83;21085;-85
2021/05/31 00:17:07;;;;;;;5.72;4.33;;;;;;;7.62;83.81;97766.12;1724334;83;21061;-85
2021/05/31 00:19:34;;;;;;;6.12;4.55;;;;;;;7.66;83.84;97764.27;1724326;83;21057;-85
2021/05/31 00:22:01;;;;;;;7.03;4.90;;;;;;;7.72;83.54;97760.17;1738866;82;21076;-86
2021/05/31 00:24:28;;;;;;;6.33;4.50;;;;;;;7.75;83.60;97761.88;1726810;82;21017;-85
2021/05/31 00:26:55;;;;;;;6.35;4.47;;;;;;;7.81;83.83;97761.77;1724349;83;21009;-85
2021/05/31 00:29:25;;;;;;;6.67;4.50;;;;;;;7.79;83.27;97760.48;1724192;83;21053;-85
2021/05/31 00:31:57;;;;;;;6.12;4.40;;;;;;;7.81;83.28;97760.89;1724309;83;21077;-85
2021/05/31 00:34:25;;;;;;;6.65;4.45;;;;;;;7.73;83.14;97759.27;1724258;83;20997;-85
2021/05/31 00:36:54;;;;;;;7.30;4.83;;;;;;;7.73;83.02;97755.78;1724419;83;21053;-85
2021/05/31 00:39:22;;;;;;;5.72;4.17;;;;;;;7.71;82.91;97765.48;1724015;83;21032;-85
2021/05/31 00:41:51;;;;;;;5.10;4.12;;;;;;;7.64;82.72;97756.86;1724208;83;21466;-85
2021/05/31 00:44:20;;;;;;;5.22;4.03;;;;;;;7.60;82.48;97754.72;1703035;83;20986;-85
2021/05/31 00:46:48;;;;;;;6.67;4.65;;;;;;;7.57;82.25;97763.15;1747134;82;21110;-85
2021/05/31 00:49:25;;;;;;;6.97;4.53;;;;;;;7.53;82.35;97763.67;1742387;82;21103;-85
2021/05/31 00:51:53;;;;;;;9.00;4.90;;;;;;;7.46;82.39;97765.56;1742503;82;21016;-85
2021/05/31 00:54:21;;;;;;;7.40;4.53;;;;;;;7.42;82.38;97759.08;1742528;82;21040;-85
2021/05/31 00:56:49;;;;;;;8.68;5.10;;;;;;;7.32;84.68;97755.75;1739943;82;21478;-85
2021/05/31 00:59:16;;;;;;;7.15;5.00;;;;;;;7.23;84.00;97757.66;1724303;83;21045;-85
2021/05/31 01:01:43;;;;;;;7.90;4.58;;;;;;;7.16;83.13;97753.42;1724302;83;21584;-85
2021/05/31 01:04:09;;;;;;;6.58;4.72;;;;;;;7.12;82.67;97747.36;1729778;82;21025;-85
2021/05/31 01:06:41;;;;;;;6.35;4.83;;;;;;;7.05;82.71;97745.72;1737289;82;21561;-85
2021/05/31 01:09:18;;;;;;;5.15;4.20;;;;;;;7.03;82.73;97744.89;1733749;82;21435;-85
2021/05/31 01:12:11;;;;;;;9.88;4.95;;;;;;;6.98;82.71;97747.60;1722397;83;21556;-85
2021/05/31 01:15:04;;;;;;;5.25;4.10;;;;;;;6.93;82.58;97745.50;1655205;87;21055;-85
2021/05/31 01:18:11;;;;;;;6.80;5.12;;;;;;;6.93;82.91;97745.97;1653334;86;21101;-85
2021/05/31 01:20:58;;;;;;;6.72;4.35;;;;;;;6.91;82.96;97748.62;1718318;83;21481;-85
2021/05/31 01:23:28;;;;;;;5.55;4.10;;;;;;;6.89;83.00;97749.56;1735461;82;21029;-85
2021/05/31 01:26:13;;;;;;;5.90;4.58;;;;;;;6.86;84.62;97746.53;1737299;82;21048;-85
2021/05/31 01:29:03;;;;;;;5.67;4.28;;;;;;;6.80;83.45;97751.89;1737573;82;21060;-85
2021/05/31 01:31:38;;;;;;;6.17;4.70;;;;;;;6.75;86.02;97751.98;1737279;82;21071;-85
2021/05/31 01:34:11;;;;;;;7.25;5.20;;;;;;;6.68;84.95;97754.33;1737384;82;21557;-85
2021/05/31 01:36:44;;;;;;;6.80;4.80;;;;;;;6.61;86.08;97743.03;1737267;82;21048;-85
2021/05/31 01:39:15;;;;;;;6.22;4.80;;;;;;;6.57;86.01;97751.41;1737322;82;21041;-85
2021/05/31 01:41:44;;;;;;;6.00;4.47;;;;;;;6.53;85.83;97755.02;1736789;82;21442;-85
2021/05/31 01:44:14;;;;;;;7.12;4.87;;;;;;;6.50;87.91;97743.64;1730433;82;21038;-85
2021/05/31 01:46:43;;;;;;;5.20;4.15;;;;;;;6.49;85.28;97744.55;1742183;82;21038;-85
2021/05/31 01:49:11;;;;;;;6.30;4.28;;;;;;;6.49;85.42;97741.91;1742319;82;21078;-85
2021/05/31 01:51:42;;;;;;;6.87;4.65;;;;;;;6.49;85.17;97744.11;1742246;82;21007;-85
2021/05/31 01:54:10;;;;;;;7.20;4.90;;;;;;;6.49;85.44;97739.28;1742181;82;21527;-85
2021/05/31 01:56:41;;;;;;;7.12;4.95;;;;;;;6.45;86.95;97741.10;1742249;82;21034;-85
2021/05/31 01:59:08;;;;;;;7.37;5.15;;;;;;;6.41;87.03;97737.66;1742235;82;21043;-84
2021/05/31 02:01:36;;;;;;;5.92;4.40;;;;;;;6.39;87.12;97741.22;1742195;81;21066;-85
2021/05/31 02:04:03;;;;;;;6.15;4.20;;;;;;;6.37;85.76;97741.67;1742062;82;21515;-84
2021/05/31 02:06:29;;;;;;;5.62;4.60;;;;;;;6.38;85.51;97739.45;1745201;82;21095;-85
2021/05/31 02:08:56;;;;;;;6.28;4.28;;;;;;;6.40;85.38;97735.90;1738405;82;21029;-85
2021/05/31 02:11:41;;;;;;;6.22;4.35;;;;;;;6.42;88.35;97735.45;1737155;82;21529;-85
2021/05/31 02:14:19;;;;;;;6.85;4.70;;;;;;;6.47;85.75;97737.55;1737163;83;21009;-85
2021/05/31 02:17:06;;;;;;;7.83;4.30;;;;;;;6.49;86.67;97735.33;1737128;83;21509;-84
2021/05/31 02:19:35;;;;;;;5.80;4.80;;;;;;;6.47;86.00;97734.91;1737164;83;21131;-85
2021/05/31 02:22:08;;;;;;;6.95;4.55;;;;;;;6.55;85.61;97733.46;1737167;82;21073;-85
2021/05/31 02:24:40;;;;;;;6.40;4.70;;;;;;;6.54;88.33;97735.68;1737617;82;21024;-85
2021/05/31 02:27:07;;;;;;;5.65;4.28;;;;;;;6.60;85.98;97736.87;1737107;82;22201;-85
2021/05/31 02:29:34;;;;;;;5.87;4.28;;;;;;;6.69;85.92;97732.36;1714399;82;21021;-85
2021/05/31 02:32:00;;;;;;;7.40;4.72;;;;;;;6.77;86.24;97726.95;1698376;83;21547;-85
2021/05/31 02:34:30;;;;;;;5.85;3.87;;;;;;;6.84;86.11;97725.48;1721283;82;21062;-85
2021/05/31 02:36:57;;;;;;;7.97;4.50;;;;;;;6.94;86.24;97719.57;1742158;82;21511;-85
2021/05/31 02:39:23;;;;;;;4.78;3.27;;;;;;;7.03;86.28;97721.62;1741929;82;21069;-85
2021/05/31 02:41:50;;;;;;;5.00;3.83;;;;;;;7.12;85.99;97723.64;1742139;81;21122;-85
2021/05/31 02:44:17;;;;;;;5.75;3.90;;;;;;;7.22;85.79;97724.30;1742226;82;21046;-85
2021/05/31 02:46:44;;;;;;;5.83;3.65;;;;;;;7.31;85.76;97720.59;1723341;82;21019;-85
2021/05/31 02:49:11;;;;;;;5.75;4.28;;;;;;;7.35;85.83;97720.11;1742192;81;21531;-85
2021/05/31 02:51:38;;;;;;;3.98;3.45;;;;;;;7.41;85.49;97716.02;1742237;82;21046;-85
2021/05/31 02:54:06;;;;;;;5.70;3.90;;;;;;;7.41;85.37;97712.06;1742949;82;21031;-85
2021/05/31 02:56:33;;;;;;;5.53;3.98;;;;;;;7.45;84.77;97715.49;1747247;82;21023;-85
2021/05/31 02:59:00;;;;;;;5.28;3.72;;;;;;;7.48;84.44;97720.71;1739768;82;21064;-85
2021/05/31 03:01:27;;;;;;;5.37;3.70;;;;;;;7.45;84.08;97717.69;1737358;82;21064;-84
2021/05/31 03:03:53;;;;;;;4.00;3.42;;;;;;;7.48;84.01;97704.89;1737236;81;21478;-84
2021/05/31 03:06:20;;;;;;;6.15;3.90;;;;;;;7.50;83.66;97717.14;1737410;82;21113;-85
2021/05/31 03:08:46;;;;;;;4.80;3.83;;;;;;;7.48;83.72;97718.92;1737355;82;21033;-85
2021/05/31 03:11:13;;;;;;;5.00;4.08;;;;;;;7.49;83.24;97708.82;1737429;82;21125;-85
2021/05/31 03:13:40;;;;;;;6.50;3.98;;;;;;;7.47;83.32;97716.34;1737426;82;21060;-85
2021/05/31 03:16:06;;;;;;;5.03;4.05;;;;;;;7.50;83.09;97724.17;1737263;82;21079;-84
2021/05/31 03:18:33;;;;;;;5.33;3.50;;;;;;;7.46;83.46;97718.10;1737618;82;21491;-84
2021/05/31 03:20:59;;;;;;;4.92;3.65;;;;;;;7.41;84.30;97717.33;1742448;82;21011;-84
2021/05/31 03:23:26;;;;;;;5.28;3.55;;;;;;;7.38;83.81;97715.63;1742270;81;21011;-84
2021/05/31 03:25:52;;;;;;;5.62;3.92;;;;;;;7.38;83.96;97720.02;1742305;81;21034;-84
2021/05/31 03:28:19;;;;;;;5.03;3.98;;;;;;;7.38;83.50;97718.70;1742309;82;21535;-84
2021/05/31 03:30:45;;;;;;;4.20;3.80;;;;;;;7.40;83.43;97715.61;1742080;81;21121;-84
2021/05/31 03:33:12;;;;;;;6.20;3.95;;;;;;;7.44;83.34;97715.96;1742321;82;21031;-84
2021/05/31 03:35:38;;;;;;;4.83;3.98;;;;;;;7.44;83.19;97714.64;1742332;82;21042;-84
2021/05/31 03:38:05;;;;;;;5.85;4.08;;;;;;;7.40;85.08;97716.92;1742254;82;21625;-84
2021/05/31 03:40:31;;;;;;;5.83;4.30;;;;;;;7.47;83.53;97717.66;1742320;82;21046;-84
2021/05/31 03:42:58;;;;;;;5.70;3.75;;;;;;;7.49;83.45;97711.45;1740235;82;21013;-85
2021/05/31 03:45:25;;;;;;;7.78;3.87;;;;;;;7.54;84.07;97710.02;1737359;82;22255;-84
2021/05/31 03:47:52;;;;;;;5.65;4.15;;;;;;;7.60;84.25;97714.30;1737437;82;21059;-85
2021/05/31 03:50:19;;;;;;;5.75;3.92;;;;;;;7.62;83.29;97708.09;1737439;82;21072;-85
2021/05/31 03:52:47;;;;;;;6.30;4.00;;;;;;;7.66;83.22;97719.44;1737262;82;21072;-84
2021/05/31 03:55:14;;;;;;;5.35;4.25;;;;;;;7.70;83.31;97711.88;1737328;82;21166;-85
2021/05/31 03:57:41;;;;;;;7.12;4.65;;;;;;;7.70;83.28;97714.95;1737273;82;21067;-84
2021/05/31 04:00:10;;;;;;;5.20;3.45;;;;;;;7.65;83.01;97718.55;1737196;82;21052;-84
2021/05/31 04:02:40;;;;;;;6.90;4.05;;;;;;;7.61;83.00;97718.23;1715193;82;21028;-84
2021/05/31 04:05:11;;;;;;;5.70;4.10;;;;;;;7.57;83.79;97723.59;1730063;82;21033;-85
2021/05/31 04:13:09;;;;;;;4.70;3.25;;;;;;;7.73;83.34;97721.02;1722083;83;21049;-85
2021/05/31 04:15:35;;;;;;;4.22;3.40;;;;;;;7.89;83.14;97718.91;1722115;83;21612;-85
2021/05/31 04:18:02;;;;;;;5.30;3.70;;;;;;;8.02;83.14;97712.03;1722122;83;21041;-85
2021/05/31 04:20:28;;;;;;;4.85;3.00;;;;;;;8.15;82.72;97716.56;1721918;82;21005;-85
2021/05/31 04:22:55;;;;;;;4.72;3.60;;;;;;;8.24;82.27;97712.38;1722010;83;21044;-85
2021/05/31 04:25:21;;;;;;;4.60;3.33;;;;;;;8.32;82.07;97713.03;1722083;83;20993;-85
2021/05/31 04:27:48;;;;;;;8.58;5.08;;;;;;;8.32;81.80;97711.72;1722033;83;21061;-85
2021/05/31 04:30:17;;;;;;;5.58;3.47;;;;;;;8.39;81.73;97707.15;1722178;83;21092;-85
2021/05/31 04:32:43;;;;;;;5.95;3.50;;;;;;;8.43;81.61;97709.28;1733387;82;21571;-84
2021/05/31 04:35:10;;;;;;;7.37;3.87;;;;;;;8.39;81.34;97708.47;1724336;83;21030;-85
2021/05/31 04:37:37;;;;;;;6.75;4.08;;;;;;;8.42;81.34;97705.77;1729641;82;21104;-84
2021/05/31 04:40:06;;;;;;;8.30;4.22;;;;;;;8.42;81.45;97704.44;1732202;82;21505;-85
2021/05/31 04:42:33;;;;;;;6.28;3.80;;;;;;;8.48;81.51;97703.43;1732051;83;21063;-85
2021/05/31 04:45:00;;;;;;;4.67;3.42;;;;;;;8.55;81.46;97706.78;1732093;83;21076;-85
2021/05/31 04:47:27;;;;;;;6.78;3.75;;;;;;;8.68;81.19;97694.98;1729896;82;21018;-85
2021/05/31 04:49:55;;;;;;;8.60;3.60;;;;;;;8.78;80.84;97698.71;1724398;83;21109;-85
2021/05/31 04:52:22;;;;;;;11.05;4.40;;;;;;;8.82;80.24;97692.00;1724402;83;21038;-85
2021/05/31 04:54:50;;;;;;;6.28;4.03;;;;;;;8.87;80.22;97689.66;1724245;83;21072;-85
2021/05/31 04:57:17;;;;;;;5.25;3.70;;;;;;;8.95;79.92;97693.84;1726836;82;21020;-85
2021/05/31 04:59:43;;;;;;;5.67;3.72;;;;;;;8.99;79.36;97697.26;1732159;83;21088;-85
2021/05/31 05:02:10;;;;;;;5.15;3.95;;;;;;;9.04;79.95;97697.11;1732015;83;21092;-85
2021/05/31 05:04:36;;;;;;;7.35;3.90;;;;;;;9.18;79.92;97700.23;1725893;81;21022;-84
2021/05/31 05:07:03;;;;;;;3.52;2.98;;;;;;;9.34;79.40;97698.02;1737146;82;21060;-85
2021/05/31 05:09:30;;;;;;;5.37;3.80;;;;;;;9.44;78.53;97693.34;1724669;82;21046;-85
2021/05/31 05:11:56;;;;;;;7.05;3.40;;;;;;;9.55;78.12;97690.34;1719159;83;21034;-85
2021/05/31 05:14:23;;;;;;;5.95;3.35;;;;;;;9.64;78.25;97682.13;1723661;82;21062;-84
2021/05/31 05:16:49;;;;;;;7.50;3.47;;;;;;;9.75;77.90;97688.87;1742196;82;20991;-85
2021/05/31 05:19:16;;;;;;;4.75;3.02;;;;;;;9.84;77.35;97680.64;1736584;81;21068;-85
2021/05/31 05:21:42;;;;;;;5.05;2.98;;;;;;;9.94;76.93;97681.67;1737277;82;21509;-85
2021/05/31 05:24:11;;;;;;;4.50;3.47;;;;;;;9.97;76.19;97677.61;1737282;82;21039;-85
2021/05/31 05:26:38;;;;;;;4.33;3.08;;;;;;;10.01;76.30;97681.90;1737366;82;21044;-84
2021/05/31 05:29:05;;;;;;;3.22;2.92;;;;;;;10.01;76.30;97680.58;1724544;82;21070;-84
2021/05/31 05:31:31;;;;;;;4.83;2.85;;;;;;;10.06;76.07;97679.97;1722006;83;21042;-84
2021/05/31 05:34:00;;;;;;;3.95;2.65;;;;;;;10.09;74.83;97685.14;1738771;82;21035;-85
2021/05/31 05:36:48;;;;;;;3.85;2.70;;;;;;;10.14;75.50;97680.56;1742248;82;21046;-85
2021/05/31 05:45:01;;;;;;;;;;;;;;;10.38;74.35;97679.34;1739883;82;21600;-85
2021/05/31 05:49:45;;;;;;;6.45;2.65;;;;;;;10.58;75.14;97671.67;1725475;82;21027;-85
2021/05/31 05:52:13;;;;;;;3.22;2.65;;;;;;;10.70;75.08;97677.85;1742249;82;21046;-84
2021/05/31 05:54:39;;;;;;;5.15;3.40;;;;;;;10.81;75.06;97669.05;1742234;82;21043;-84
2021/05/31 05:57:07;;;;;;;4.53;3.12;;;;;;;10.95;74.70;97673.00;1741835;82;21508;-85
2021/05/31 05:59:34;;;;;;;5.35;3.17;;;;;;;11.06;74.79;97661.55;1747624;82;21044;-85
2021/05/31 06:02:01;;;;;;;4.92;3.10;;;;;;;11.20;74.64;97666.34;1739366;82;21052;-85
2021/05/31 06:04:28;;;;;;;3.75;3.20;;;;;;;11.32;74.37;97666.78;1737145;82;21072;-85
2021/05/31 06:06:54;;;;;;;4.00;3.22;;;;;;;11.43;74.56;97666.39;1723291;82;21057;-85
2021/05/31 06:09:21;;;;;;;4.72;3.77;;;;;;;11.49;73.46;97656.41;1721818;82;21033;-85
2021/05/31 06:11:48;;;;;;;4.60;3.80;;;;;;;11.48;74.06;97659.98;1721815;83;21518;-85
2021/05/31 06:14:15;;;;;;;7.58;4.05;;;;;;;11.53;74.22;97658.47;1721937;83;21033;-84
2021/05/31 06:16:41;;;;;;;5.80;3.77;;;;;;;11.61;73.96;97656.84;1710729;82;20981;-85
2021/05/31 06:19:08;;;;;;;4.37;3.98;;;;;;;11.68;73.83;97653.03;1691598;85;21096;-85
2021/05/31 06:21:34;;;;;;;5.05;3.70;;;;;;;11.80;73.33;97650.80;1691686;85;21490;-86
2021/05/31 06:24:01;;;;;;;7.03;3.55;;;;;;;11.89;73.82;97647.78;1691945;85;21064;-84
2021/05/31 06:26:27;;;;;;;4.65;4.10;;;;;;;11.98;74.24;97639.44;1696202;83;21513;-85
2021/05/31 06:28:54;;;;;;;6.17;3.83;;;;;;;12.11;74.05;97649.58;1724575;83;21088;-85
2021/05/31 06:31:20;;;;;;;4.78;4.28;;;;;;;12.16;73.30;97643.61;1722200;83;21100;-86
2021/05/31 06:33:47;;;;;;;5.83;4.28;;;;;;;12.19;73.23;97644.81;1722168;83;21065;-86
2021/05/31 06:36:13;;;;;;;4.40;3.83;;;;;;;12.16;73.06;97640.95;1722970;82;21020;-86
2021/05/31 06:38:40;;;;;;;7.12;4.05;;;;;;;12.22;73.44;97636.73;1742326;82;21118;-86
2021/05/31 06:41:06;;;;;;;5.47;3.47;;;;;;;12.30;73.31;97633.75;1739229;82;21060;-86
2021/05/31 06:43:34;;;;;;;4.97;4.15;;;;;;;12.39;72.75;97631.16;1722936;83;21048;-86
2021/05/31 06:46:03;;;;;;;5.75;4.20;;;;;;;12.41;72.62;97636.80;1723220;82;21099;-86
2021/05/31 06:48:29;;;;;;;5.03;4.35;;;;;;;12.52;72.90;97634.14;1725110;82;20998;-87
2021/05/31 06:50:56;;;;;;;5.47;4.28;;;;;;;12.66;73.16;97636.19;1724576;83;21068;-86
2021/05/31 06:53:23;;;;;;;5.87;4.20;;;;;;;12.83;73.06;97633.27;1724294;83;21163;-86
2021/05/31 06:55:49;;;;;;;9.33;4.20;;;;;;;13.00;72.85;97632.02;1724587;83;21531;-86
2021/05/31 06:58:16;;;;;;;5.40;3.87;;;;;;;13.18;72.48;97634.79;1724460;83;21073;-86
2021/05/31 07:00:44;;;;;;;3.90;3.55;;;;;;;13.27;72.39;97631.70;1724446;83;21066;-86
2021/05/31 07:03:10;;;;;;;3.50;3.20;;;;;;;13.34;71.11;97633.62;1724384;83;21090;-86
2021/05/31 07:05:37;;;;;;;4.17;3.33;;;;;;;13.42;70.56;97631.92;1728862;81;21534;-86
2021/05/31 07:08:04;;;;;;;3.12;2.83;;;;;;;13.56;70.30;97634.83;1740510;82;21497;-86
2021/05/31 07:10:31;;;;;;;5.15;3.35;;;;;;;13.58;69.08;97633.43;1737509;82;21052;-85
2021/05/31 07:12:59;;;;;;;5.08;3.00;;;;;;;13.64;69.00;97632.25;1737385;82;21045;-86
2021/05/31 07:15:27;;;;;;;4.70;3.45;;;;;;;13.72;68.62;97629.64;1737147;82;21052;-84
2021/05/31 07:17:54;;;;;;;4.67;3.20;;;;;;;13.88;68.96;97630.22;1739798;82;21050;-85
2021/05/31 07:20:21;;;;;;;3.52;2.22;;;;;;;14.01;67.46;97630.47;1742369;82;21081;-85
2021/05/31 07:22:48;;;;;;;3.75;2.70;;;;;;;14.10;66.91;97631.35;1742295;82;21018;-85
2021/05/31 07:25:18;;;;;;;3.67;2.70;;;;;;;14.20;67.40;97632.23;1742359;82;21125;-86
2021/05/31 07:27:45;;;;;;;4.28;3.05;;;;;;;14.27;66.47;97633.63;1745727;82;21529;-85
2021/05/31 07:30:14;;;;;;;3.35;2.72;;;;;;;14.30;66.50;97624.61;1740582;82;21076;-85
2021/05/31 07:32:41;;;;;;;4.05;2.87;;;;;;;14.30;66.27;97624.61;1737341;82;21524;-86
2021/05/31 07:35:10;;;;;;;3.30;2.92;;;;;;;14.24;66.37;97626.65;1737436;82;21024;-86
2021/05/31 07:37:38;;;;;;;4.40;3.00;;;;;;;14.15;65.80;97623.60;1729381;82;21026;-85
2021/05/31 07:40:09;;;;;;;3.30;2.80;;;;;;;14.09;66.37;97620.77;1723506;82;21063;-86
2021/05/31 07:42:36;;;;;;;3.02;2.72;;;;;;;14.00;66.27;97622.09;1742287;82;21509;-86
2021/05/31 07:45:05;;;;;;;3.98;2.87;;;;;;;14.01;66.33;97616.28;1742447;82;21607;-85
2021/05/31 07:47:32;;;;;;;3.00;2.70;;;;;;;14.04;66.40;97621.47;1745386;82;21461;-85
2021/05/31 07:49:59;;;;;;;3.00;2.40;;;;;;;14.09;67.24;97616.31;1746166;82;21060;-85
2021/05/31 07:52:28;;;;;;;2.70;2.50;;;;;;;14.26;66.29;97614.58;1737348;82;21471;-85
2021/05/31 07:54:56;;;;;;;2.33;2.12;;;;;;;14.36;65.86;97609.63;1737418;82;21024;-85
2021/05/31 07:57:25;;;;;;;2.92;2.70;;;;;;;14.51;65.36;97602.66;1732015;82;21063;-85
2021/05/31 07:59:53;;;;;;;3.02;2.60;;;;;;;14.70;64.90;97605.20;1720390;82;21010;-85
2021/05/31 08:02:21;;;;;;;3.10;2.80;;;;;;;14.94;64.71;97600.04;1742363;82;21154;-85
2021/05/31 08:04:47;;;;;;;3.08;2.77;;;;;;;15.11;63.96;97598.63;1742247;82;21047;-85
2021/05/31 08:07:14;;;;;;;3.45;2.70;;;;;;;15.26;63.87;97598.73;1732845;82;21255;-86
2021/05/31 08:09:41;;;;;;;2.92;2.40;;;;;;;15.40;64.29;97604.67;1732190;83;21060;-86
2021/05/31 08:12:09;;;;;;;3.37;1.67;;;;;;;15.44;62.97;97600.39;1726844;82;21460;-86
2021/05/31 08:14:36;;;;;;;6.80;2.02;;;;;;;15.47;62.13;97592.69;1731008;82;21008;-86
2021/05/31 08:17:03;;;;;;;2.60;1.85;;;;;;;15.60;62.09;97591.52;1728500;82;21049;-86
2021/05/31 08:19:31;;;;;;;2.37;2.15;;;;;;;15.67;59.01;97594.70;1722355;81;21443;-86
2021/05/31 08:22:00;;;;;;;3.45;1.95;;;;;;;15.76;61.01;97585.29;1722018;83;21053;-86
2021/05/31 08:24:26;;;;;;;2.15;1.87;;;;;;;15.78;61.20;97581.58;1722932;82;21033;-86
2021/05/31 08:26:53;;;;;;;3.30;2.17;;;;;;;15.80;60.63;97587.71;1739326;82;21038;-86
2021/05/31 08:29:21;;;;;;;2.80;2.30;;;;;;;15.77;59.11;97589.67;1742548;82;21042;-86
2021/05/31 08:31:50;;;;;;;2.42;2.20;;;;;;;15.63;59.42;97584.67;1735679;82;21039;-86
2021/05/31 08:34:17;;;;;;;2.70;2.47;;;;;;;15.65;60.30;97591.27;1726341;82;21502;-86
2021/05/31 08:36:45;;;;;;;3.37;2.47;;;;;;;15.70;60.58;97590.03;1732087;83;21089;-86
2021/05/31 08:39:12;;;;;;;2.98;2.15;;;;;;;15.73;59.95;97586.82;1731014;83;21092;-86
2021/05/31 08:41:39;;;;;;;3.92;2.42;;;;;;;15.68;59.98;97588.41;1722027;83;21506;-85
2021/05/31 08:44:06;;;;;;;2.67;2.10;;;;;;;15.65;60.73;97581.42;1723260;82;21533;-86
2021/05/31 08:46:35;;;;;;;4.78;2.47;;;;;;;15.69;60.36;97583.44;1721898;83;21018;-86
2021/05/31 08:49:03;;;;;;;2.90;2.37;;;;;;;15.72;59.82;97583.27;1722150;83;21530;-86
2021/05/31 08:51:32;;;;;;;2.85;2.10;;;;;;;15.68;59.56;97591.07;1724295;83;21069;-85
2021/05/31 08:54:00;;;;;;;4.60;2.47;;;;;;;15.71;60.33;97589.08;1724611;82;21014;-86
2021/05/31 08:56:27;;;;;;;4.47;2.65;;;;;;;15.63;60.07;97589.14;1671502;84;21045;-86
2021/05/31 08:58:53;;;;;;;5.10;2.62;;;;;;;15.55;60.11;97582.90;1669719;86;21471;-86
2021/05/31 09:01:23;;;;;;;2.22;1.90;;;;;;;15.51;60.57;97586.23;1669638;86;21049;-85
2021/05/31 09:03:48;;;;;;;2.33;1.90;;;;;;;15.47;59.94;97580.66;1669707;86;21530;-85
2021/05/31 09:06:16;;;;;;;3.83;2.37;;;;;;;15.23;59.73;97573.08;1727052;81;21130;-85
2021/05/31 09:08:58;;;;;;;2.37;2.17;;;;;;;15.13;60.35;97573.20;1742271;82;21042;-85
2021/05/31 09:11:27;;;;;;;4.20;2.20;;;;;;;15.10;61.13;97568.02;1741603;82;21066;-85
2021/05/31 09:13:55;;;;;;;4.15;2.42;;;;;;;15.07;61.78;97568.20;1742169;82;21018;-85
2021/05/31 09:16:29;;;;;;;3.67;2.47;;;;;;;15.07;61.05;97564.20;1737269;82;21040;-85
2021/05/31 09:19:04;;;;;;;4.53;1.90;;;;;;;14.99;61.26;97566.80;1737367;82;21068;-86
2021/05/31 09:21:42;;;;;;;4.40;1.85;;;;;;;14.97;60.78;97558.49;1737221;82;21060;-85
2021/05/31 09:24:11;;;;;;;;;;;;;;;15.00;61.93;97570.34;1738151;82;21076;-85
2021/05/31 09:26:57;;;;;;;3.62;1.90;;;;;;;15.02;61.92;97567.11;1727105;82;20154;-85
2021/05/31 09:29:26;;;;;;;4.78;1.77;;;;;;;15.04;61.69;97565.23;1742142;82;21050;-85
2021/05/31 09:32:06;;;;;;;2.62;1.60;;;;;;;15.10;62.00;97558.22;1742321;81;21069;-85
2021/05/31 09:34:33;;;;;;;2.80;1.80;;;;;;;15.12;61.75;97552.80;1742569;82;20972;-85
2021/05/31 09:37:03;;;;;;;2.12;1.90;;;;;;;15.13;60.49;97551.39;1747723;82;21131;-85
2021/05/31 09:39:40;;;;;;;2.83;1.98;;;;;;;15.10;61.60;97548.00;1737957;82;21088;-85
2021/05/31 09:42:14;;;;;;;4.10;2.65;;;;;;;15.09;61.91;97550.28;1737179;82;20996;-86
2021/05/31 09:44:43;;;;;;;13.15;6.87;;;;;;;15.11;62.20;97554.59;1736431;82;21516;-86
2021/05/31 09:47:09;;;;;;;6.85;4.33;;;;;;;15.10;62.32;97543.54;1737311;82;21060;-85
2021/05/31 09:49:38;;;;;;;43.30;27.90;;;;;;;15.08;62.16;97545.45;1737106;82;21517;-85
2021/05/31 09:52:09;;;;;;;7.08;3.90;;;;;;;15.01;62.13;97547.59;1737217;82;21517;-86
2021/05/31 09:54:48;;;;;;;4.85;3.40;;;;;;;15.01;62.80;97541.38;1737356;82;21025;-85
2021/05/31 09:57:24;;;;;;;4.67;3.27;;;;;;;14.91;63.07;97539.20;1742387;82;21532;-86
2021/05/31 09:59:59;;;;;;;3.33;2.70;;;;;;;14.89;62.87;97543.78;1742231;82;21047;-85
2021/05/31 10:10:52;;;;;;;4.25;2.40;;;;;;;14.88;61.01;97535.86;1608393;89;21071;-86
2021/05/31 10:13:19;;;;;;;5.28;3.20;;;;;;;15.07;61.41;97529.02;1688007;82;21023;-86
2021/05/31 10:15:47;;;;;;;3.45;1.90;;;;;;;15.35;61.95;97528.81;1721545;82;21558;-86
2021/05/31 10:18:15;;;;;;;3.47;1.90;;;;;;;15.59;59.80;97521.69;1742315;81;21051;-86
2021/05/31 10:20:43;;;;;;;2.80;2.20;;;;;;;15.73;59.31;97522.21;1742397;82;21034;-86
2021/05/31 10:23:12;;;;;;;2.95;2.15;;;;;;;15.84;59.87;97520.25;1743031;82;21000;-86
2021/05/31 10:25:45;;;;;;;2.05;1.85;;;;;;;16.10;58.65;97508.52;1740178;82;21063;-86
2021/05/31 10:28:20;;;;;;;3.67;2.05;;;;;;;16.33;57.52;97495.58;1739357;81;21053;-86
2021/05/31 10:30:52;;;;;;;5.50;2.47;;;;;;;16.50;58.51;97494.54;1739817;82;21016;-86
2021/05/31 10:33:25;;;;;;;2.70;1.62;;;;;;;16.78;56.81;97490.61;1738471;82;21031;-86
2021/05/31 10:35:54;;;;;;;1.80;1.40;;;;;;;16.94;53.71;97491.84;1739926;81;21025;-86
2021/05/31 10:38:25;;;;;;;2.33;1.50;;;;;;;16.89;50.86;97481.41;1740012;81;21032;-87
2021/05/31 10:40:54;;;;;;;1.87;1.47;;;;;;;17.33;53.51;97480.01;1740351;81;21060;-86
2021/05/31 10:43:24;;;;;;;2.17;1.55;;;;;;;17.96;50.60;97485.66;1740293;81;21269;-87
2021/05/31 10:46:03;;;;;;;2.15;1.50;;;;;;;17.79;49.24;97476.96;1723244;83;20995;-85
2021/05/31 10:48:50;;;;;;;2.05;1.42;;;;;;;17.67;51.55;97478.64;1721689;83;21142;-85
2021/05/31 10:51:25;;;;;;;1.35;1.20;;;;;;;17.53;50.61;97470.67;1737862;81;21003;-85
2021/05/31 10:53:53;;;;;;;1.57;1.10;;;;;;;17.43;49.89;97468.22;1745141;82;21043;-85
2021/05/31 10:56:27;;;;;;;1.77;1.37;;;;;;;17.42;51.89;97463.33;1745416;82;20990;-85
2021/05/31 10:58:56;;;;;;;;;;;;;;;17.40;51.80;97458.57;1747755;82;21031;-85
2021/05/31 11:01:34;;;;;;;1.30;1.20;;;;;;;17.38;50.10;97457.80;1744622;81;20150;-85
2021/05/31 11:04:10;;;;;;;1.45;1.05;;;;;;;17.24;50.46;97455.54;1745829;81;20999;-85
2021/05/31 11:06:44;;;;;;;1.72;1.40;;;;;;;17.19;51.61;97454.14;1743386;82;21056;-85
2021/05/31 11:09:15;;;;;;;1.95;1.40;;;;;;;17.26;52.28;97455.44;1728635;83;21045;-85
2021/05/31 11:11:52;;;;;;;6.58;1.50;;;;;;;17.11;51.61;97444.78;1727002;83;21010;-86
2021/05/31 11:14:38;;;;;;;1.52;1.40;;;;;;;17.16;52.91;97447.17;1731431;82;21060;-86
2021/05/31 11:17:12;;;;;;;2.70;1.50;;;;;;;17.26;53.25;97447.41;1735000;83;21111;-86
2021/05/31 11:19:45;;;;;;;4.58;2.27;;;;;;;17.47;52.92;97445.13;1735381;83;21140;-85
2021/05/31 11:22:25;;;;;;;5.97;2.05;;;;;;;18.00;52.32;97436.23;1734808;83;21044;-86
2021/05/31 11:24:55;;;;;;;2.47;1.70;;;;;;;18.05;51.77;97434.56;1734892;83;21052;-86
2021/05/31 11:27:34;;;;;;;5.15;2.92;;;;;;;18.04;51.87;97437.75;1734536;83;21473;-86
2021/05/31 11:30:04;;;;;;;2.67;1.60;;;;;;;18.03;51.96;97427.97;1734579;83;21103;-86
2021/05/31 11:32:31;;;;;;;1.98;1.42;;;;;;;18.00;51.12;97420.15;1734543;83;21549;-86
2021/05/31 11:35:03;;;;;;;2.47;1.75;;;;;;;18.00;51.77;97425.98;1727918;82;21120;-87
2021/05/31 11:37:32;;;;;;;3.35;2.05;;;;;;;18.01;51.86;97431.25;1726795;82;21053;-86
2021/05/31 11:40:01;;;;;;;2.35;1.70;;;;;;;18.04;51.60;97431.52;1726724;83;21037;-86
2021/05/31 11:42:29;;;;;;;2.55;1.55;;;;;;;19.23;50.44;97419.53;1726615;82;21475;-86
2021/05/31 11:44:58;;;;;;;1.60;1.30;;;;;;;20.82;45.22;97417.30;1735070;82;21517;-86
2021/05/31 11:47:27;;;;;;;1.20;1.00;;;;;;;22.22;44.21;97409.78;1733872;82;21048;-86
2021/05/31 11:49:54;;;;;;;2.00;0.80;;;;;;;23.23;37.52;97402.77;1734381;83;21568;-86
2021/05/31 11:52:27;;;;;;;1.10;1.00;;;;;;;24.09;37.70;97388.19;1732936;82;21018;-86
2021/05/31 11:54:54;;;;;;;2.50;1.30;;;;;;;25.32;35.72;97402.08;1734251;83;21036;-86
2021/05/31 11:57:23;;;;;;;2.17;1.37;;;;;;;25.42;35.92;97398.78;1734395;83;21063;-86
2021/05/31 11:59:54;;;;;;;9.53;2.20;;;;;;;24.71;39.27;97404.42;1734577;83;21036;-89
2021/05/31 12:02:25;;;;;;;8.90;1.85;;;;;;;23.72;42.05;97416.83;1730829;82;21054;-87
2021/05/31 12:04:53;;;;;;;4.00;1.90;;;;;;;22.62;45.16;97431.11;1726705;83;21018;-87
2021/05/31 12:07:24;;;;;;;1.70;1.30;;;;;;;21.79;47.12;97442.66;1731782;81;21075;-87
2021/05/31 12:09:53;;;;;;;4.17;1.50;;;;;;;20.96;46.46;97453.43;1742262;82;21066;-85